メインページ
METAR-TAF:

METAR-TAF

空港 :

バスラ国際空港

バスラ, イラク

緯度: 30-32-56N, 経度: 47-39-45E, 海抜: 1m

現時点の気象観測

当レポートは33分前の09:00(UTC)に作成
西/北西の風 8kt
気温 18°C
湿度 73%
気圧 1024 hPa
視程: 4000m
煙霧

METAR: ORMM 190900Z 30008KT 4000 HZ NSC 18/13 Q1024 NOSIG

時間: 12:33 (09:33 UTC)

予報

当レポートは5時間33分前の04:00(UTC)に作成
予報は19日の 06時(UTC)から 20日の 06時(UTC)まで有効
西/北西の風 8kt
視程: 2000m
19日の 08時(UTC)から 19日の 10時(UTC)まで徐々に
視程: 4000m
高度4000ftの雲は散在している
煙霧
19日の 10時(UTC)から 19日の 12時(UTC)まで徐々に
視程: 7000m
19日の 17時(UTC)から 19日の 19時(UTC)まで徐々に
変向風 4kt
視程: 4000m

TAF: ORMM 190400Z 1906/2006 29008KT 2000 BR NSC BECMG 1908/1910 4000 HZ SCT040 BECMG 1910/1912 7000 NSC BECMG 1917/1919 VRB04KT 4000 BR

4,000以上の空港の気象観測と天気予報(METAR報とTAF報)

利用可能な観測所は地図上に黄色い丸と赤い丸で示す。

丸の上にカーソルを重ねると観測所名を参照できる。

次にクリックすると気象観測と天気予報を参照できる。

マップの切り替え:黒色「×」印の緑ボタンをクリックして拡大、「-」印の緑ボタンをクリックして縮小、緑色の三角印をクリックして隣りの地図に切り替え


METAR-TAF: